Terril, Iowa
Current Conditions -  °F | °C
As of 2:24 AM on Thursday 29 Jan 2015 (Local Time) from KEST Reporting Station
Haze Haze  
Wind Chill: 18°   Ceiling: 800
Heat Index: 32°   Visibility: 6mi
Dew Point: 30°   Wind: 30mph
Humidity: 92%   Direction: 340°NNW
Pressure: 29.97"   Gusts: 38mph
Location:  43.31°N, 94.97°W
Report Text: KEST 290824Z AUTO 34026G33KT 6SM BR BKN008 OVC013 00/M01 A2997 RMK AO2 PK WND 32035/0801 I1000 T00001011
Loading
Personal Weather Stations






























Interactive Weather Map New forecast layout! Learn more

10-Day Weather Forecast

Advertisements
Track Severe Weather on mobile